»·PEaware :: N172TT KSNA-KBFL

N172TT :: KSNA-KBFL

FLIGHT INFORMATION

Flight Status: Arrived
Operator: Privately registered:
United States
More flights under this callsign
Pilot: Thomas T. (19955)
Aircraft: CESSNA 172 SKYHAWK
(C172)
More flights by this aircraft type
Origin: KSNA John Wayne-Orange Co
United States
Destination: KBFL Meadows
United States
More flights between these airports :: More routes between these airports
Route: +
File this flight plan on PilotEdge
Remarks:
Altitude:
(Current/Filed)
0ft
Speed:
(Current/Filed)
0kts
Departed: 08-Sep-18 08:29 AM
Arrived: 08-Sep-18 09:32 AM
Distance/Time
Traveled:
121nm/1:03
Distance/Time
To Go:
Arrived

Flight Plot

Page will automatically refresh every two minutes.


Map Options




Map Legend


Flown Route
Filed Route
Departure Airport
Arrival Airport
Navaid (VOR, NDB)
Fix

Horizontal Profiles

Position Reports

Time Latitude Longitude Heading Altitude Ground
Speed
08-Sep-18 08:19 33.676662 -117.871253 127 60ft 0kts
08-Sep-18 08:20 33.676662 -117.871253 127 60ft 0kts
08-Sep-18 08:21 33.676662 -117.871253 127 60ft 0kts
08-Sep-18 08:22 33.676662 -117.871253 127 60ft 0kts
08-Sep-18 08:23 33.676662 -117.871253 127 60ft 0kts
08-Sep-18 08:24 33.676662 -117.871253 127 60ft 0kts
08-Sep-18 08:25 33.676466 -117.870913 119 60ft 6kts
08-Sep-18 08:26 33.677217 -117.869336 23 60ft 17kts
08-Sep-18 08:27 33.681229 -117.866800 79 60ft 0kts
08-Sep-18 08:28 33.681229 -117.866800 79 60ft 0kts
08-Sep-18 08:29 33.681229 -117.866800 79 60ft 0kts
08-Sep-18 08:30 33.681198 -117.866463 105 60ft 9kts
08-Sep-18 08:31 33.673948 -117.870462 218 240ft 75kts
08-Sep-18 08:32 33.659069 -117.892117 278 836ft 111kts
08-Sep-18 08:33 33.685878 -117.909483 343 1322ft 117kts
08-Sep-18 08:34 33.717104 -117.919890 349 1817ft 117kts
08-Sep-18 08:35 33.749214 -117.923697 354 2313ft 116kts
08-Sep-18 08:36 33.779490 -117.935364 335 2813ft 115kts
08-Sep-18 08:37 33.810318 -117.929733 16 3299ft 115kts
08-Sep-18 08:38 33.840562 -117.918299 17 3797ft 114kts
08-Sep-18 08:39 33.870013 -117.907053 17 4293ft 108kts
08-Sep-18 08:40 33.901339 -117.894992 16 4316ft 124kts
08-Sep-18 08:41 33.933774 -117.905153 327 4320ft 125kts
08-Sep-18 08:42 33.962725 -117.927962 326 4320ft 125kts
08-Sep-18 08:43 33.991719 -117.950756 326 4333ft 124kts
08-Sep-18 08:44 34.021422 -117.974002 326 4061ft 138kts
08-Sep-18 08:45 34.053607 -117.999045 326 3615ft 133kts
08-Sep-18 08:46 34.080084 -118.019632 326 4307ft 109kts
08-Sep-18 08:47 34.105142 -118.039068 326 4831ft 111kts
08-Sep-18 08:48 34.131027 -118.059047 327 5327ft 111kts
08-Sep-18 08:49 34.156945 -118.078962 327 5825ft 110kts
08-Sep-18 08:50 34.182688 -118.098656 327 6324ft 109kts
08-Sep-18 08:51 34.209420 -118.119006 327 6502ft 124kts
08-Sep-18 08:52 34.239116 -118.141476 327 6503ft 127kts
08-Sep-18 08:53 34.269112 -118.164069 327 6502ft 127kts
08-Sep-18 08:54 34.299288 -118.186699 328 6501ft 127kts
08-Sep-18 08:55 34.329449 -118.209217 328 6500ft 127kts
08-Sep-18 08:56 34.359647 -118.231661 328 6499ft 127kts
08-Sep-18 08:57 34.389931 -118.254068 328 6499ft 127kts
08-Sep-18 08:58 34.420054 -118.276259 328 6498ft 128kts
08-Sep-18 08:59 34.450458 -118.298556 328 6497ft 128kts
08-Sep-18 09:00 34.480832 -118.320731 328 6496ft 128kts
08-Sep-18 09:01 34.511269 -118.342852 328 6496ft 128kts
08-Sep-18 09:02 34.541761 -118.364912 329 6495ft 128kts
08-Sep-18 09:03 34.572199 -118.386834 329 6494ft 128kts
08-Sep-18 09:04 34.602842 -118.408801 329 6493ft 128kts
08-Sep-18 09:05 34.633300 -118.430541 329 6492ft 128kts
08-Sep-18 09:06 34.663890 -118.452280 329 6492ft 128kts
08-Sep-18 09:07 34.695709 -118.474788 329 5927ft 151kts
08-Sep-18 09:08 34.731182 -118.499715 330 5192ft 138kts
08-Sep-18 09:09 34.763003 -118.522357 319 5090ft 133kts
08-Sep-18 09:10 34.785285 -118.557693 306 5001ft 130kts
08-Sep-18 09:11 34.807200 -118.591129 314 5196ft 118kts
08-Sep-18 09:12 34.829859 -118.617625 318 5672ft 115kts
08-Sep-18 09:13 34.855363 -118.642174 328 5984ft 117kts
08-Sep-18 09:14 34.881621 -118.661048 330 6411ft 111kts
08-Sep-18 09:15 34.910772 -118.680626 330 6486ft 126kts
08-Sep-18 09:16 34.941593 -118.701203 330 6486ft 128kts
08-Sep-18 09:17 34.973456 -118.722369 331 6253ft 137kts
08-Sep-18 09:18 35.007273 -118.744702 331 5853ft 139kts
08-Sep-18 09:19 35.040938 -118.766824 331 5456ft 138kts
08-Sep-18 09:20 35.074452 -118.788723 331 5056ft 137kts
08-Sep-18 09:21 35.106606 -118.809635 331 4673ft 137kts
08-Sep-18 09:22 35.140237 -118.831404 331 4272ft 137kts
08-Sep-18 09:23 35.173860 -118.853062 331 3873ft 137kts
08-Sep-18 09:24 35.207612 -118.874696 332 3503ft 135kts
08-Sep-18 09:25 35.239434 -118.895008 332 3500ft 127kts
08-Sep-18 09:26 35.270682 -118.914870 332 3499ft 126kts
08-Sep-18 09:27 35.301815 -118.934561 332 3499ft 126kts
08-Sep-18 09:28 35.333009 -118.954194 332 3474ft 128kts
08-Sep-18 09:29 35.364126 -118.974902 327 3014ft 126kts
08-Sep-18 09:30 35.385593 -118.995525 315 2339ft 87kts
08-Sep-18 09:31 35.401374 -119.016463 312 1546ft 80kts
08-Sep-18 09:32 35.416768 -119.035361 315 949ft 76kts
08-Sep-18 09:33 35.431149 -119.053003 316 565ft 66kts
08-Sep-18 09:34 35.436148 -119.057925 43 497ft 1kts
08-Sep-18 09:35 35.435992 -119.055248 47 497ft 14kts

Navigation Log

Ident Type
1. KSNA Airport
2. KBFL Airport